createdAt,value
2023-04-05T00:00:11.216Z,102112.34
2023-04-05T00:03:18.583Z,102118.28
2023-04-05T00:06:22.315Z,102117.59
2023-04-05T00:09:25.042Z,102108.13
2023-04-05T00:12:27.908Z,102105.91
2023-04-05T00:15:31.471Z,102103.31
2023-04-05T00:18:38.370Z,102097.72
2023-04-05T00:21:41.748Z,102104.63
2023-04-05T00:24:45.644Z,102104.53
2023-04-05T00:27:48.498Z,102107.84
2023-04-05T00:30:53.677Z,102111.16
2023-04-05T00:33:57.873Z,102101.91
2023-04-05T00:37:01.578Z,102103.59
2023-04-05T00:40:05.556Z,102106.53
2023-04-05T00:43:08.464Z,102103.84
2023-04-05T00:46:11.561Z,102106.72
2023-04-05T00:49:15.834Z,102095.75
2023-04-05T00:52:19.566Z,102097.19
2023-04-05T00:55:22.877Z,102091.81
2023-04-05T00:58:25.776Z,102091.81
2023-04-05T01:01:30.342Z,102096.34
2023-04-05T01:04:37.891Z,102093.50
2023-04-05T01:07:47.631Z,102085.72
2023-04-05T01:10:59.899Z,102093.13
2023-04-05T01:14:03.228Z,102086.34
2023-04-05T01:17:09.705Z,102084.06
2023-04-05T01:20:14.132Z,102090.66
2023-04-05T01:23:37.777Z,102090.34
2023-04-05T01:27:05.568Z,102090.91
2023-04-05T01:30:16.828Z,102084.75
2023-04-05T01:33:26.843Z,102088.81
2023-04-05T01:36:41.135Z,102088.13
2023-04-05T01:39:44.623Z,102083.22
2023-04-05T01:42:47.324Z,102093.84
2023-04-05T01:45:51.580Z,102083.88
2023-04-05T01:48:54.413Z,102086.34
2023-04-05T01:51:57.185Z,102083.81
2023-04-05T01:55:00.031Z,102078.25
2023-04-05T01:58:02.832Z,102077.72
2023-04-05T02:01:07.166Z,102083.81
2023-04-05T02:04:10.101Z,102076.78
2023-04-05T02:07:12.819Z,102074.41
2023-04-05T02:10:16.253Z,102067.63
2023-04-05T02:13:18.909Z,102074.09
2023-04-05T02:16:23.604Z,102072.25
2023-04-05T02:19:26.463Z,102078.63
2023-04-05T02:22:29.855Z,102069.84
2023-04-05T02:25:32.584Z,102077.09
2023-04-05T02:28:35.685Z,102069.69
2023-04-05T02:31:40.013Z,102064.88
2023-04-05T02:34:43.490Z,102069.09
2023-04-05T02:37:46.455Z,102057.69
2023-04-05T02:40:50.305Z,102058.69
2023-04-05T02:43:54.190Z,102054.97
2023-04-05T02:46:58.440Z,102051.28
2023-04-05T02:50:01.409Z,102049.66
2023-04-05T02:53:04.376Z,102048.50
2023-04-05T02:56:07.831Z,102048.34
2023-04-05T02:59:11.125Z,102052.53
2023-04-05T03:02:16.118Z,102044.63
2023-04-05T03:05:20.723Z,102044.03
2023-04-05T03:08:24.087Z,102041.63
2023-04-05T03:11:26.811Z,102045.25
2023-04-05T03:14:29.834Z,102035.13
2023-04-05T03:17:34.077Z,102029.91
2023-04-05T03:20:40.013Z,102032.00
2023-04-05T03:23:43.144Z,102033.50
2023-04-05T03:26:48.039Z,102022.41
2023-04-05T03:29:51.487Z,102020.44
2023-04-05T03:32:57.214Z,102016.50
2023-04-05T03:36:01.242Z,102014.66
2023-04-05T03:39:04.962Z,102019.50
2023-04-05T03:42:07.674Z,102018.66
2023-04-05T03:45:11.132Z,102013.09
2023-04-05T03:48:19.997Z,102010.91
2023-04-05T03:51:22.731Z,102016.16
2023-04-05T03:54:25.561Z,102008.00
2023-04-05T03:57:29.483Z,102018.66
2023-04-05T04:00:34.329Z,102008.22
2023-04-05T04:03:39.108Z,102011.28
2023-04-05T04:06:42.130Z,102010.13
2023-04-05T04:09:44.972Z,102003.88
2023-04-05T04:12:47.703Z,102014.31
2023-04-05T04:15:50.792Z,102007.22
2023-04-05T04:18:54.976Z,102006.19
2023-04-05T04:21:59.226Z,102011.41
2023-04-05T04:25:04.730Z,102008.91
2023-04-05T04:28:07.951Z,102012.25
2023-04-05T04:31:13.632Z,102009.84
2023-04-05T04:34:18.504Z,102010.06
2023-04-05T04:37:22.905Z,102007.84
2023-04-05T04:40:29.271Z,102016.06
2023-04-05T04:43:33.941Z,102016.06
2023-04-05T04:46:43.011Z,102014.75
2023-04-05T04:49:47.252Z,102017.06
2023-04-05T04:52:49.985Z,102018.69
2023-04-05T04:55:52.780Z,102021.72
2023-04-05T04:58:56.682Z,102022.91
2023-04-05T05:01:59.639Z,102018.25
2023-04-05T05:05:04.417Z,102019.44
2023-04-05T05:08:07.622Z,102015.06
2023-04-05T05:11:11.025Z,102016.63
2023-04-05T05:14:13.944Z,102013.78
2023-04-05T05:17:16.769Z,102015.09
2023-04-05T05:20:21.056Z,102005.66
2023-04-05T05:23:24.004Z,102012.63
2023-04-05T05:26:27.191Z,102007.78
2023-04-05T05:29:30.369Z,102015.91
2023-04-05T05:32:33.289Z,102018.81
2023-04-05T05:35:38.137Z,102016.09
2023-04-05T05:38:43.158Z,102020.88
2023-04-05T05:41:46.367Z,102014.16
2023-04-05T05:44:49.266Z,102011.81
2023-04-05T05:47:52.383Z,102007.59
2023-04-05T05:50:57.233Z,102008.44
2023-04-05T05:54:00.403Z,102006.41
2023-04-05T05:57:03.476Z,102007.78
2023-04-05T06:00:09.657Z,102000.34
2023-04-05T06:03:13.503Z,102003.38
2023-04-05T06:06:17.881Z,101992.03
2023-04-05T06:09:21.686Z,102005.59
2023-04-05T06:12:24.814Z,101997.81
2023-04-05T06:15:28.397Z,101991.69
2023-04-05T06:18:31.617Z,101997.25
2023-04-05T06:21:35.736Z,101994.53
2023-04-05T06:24:38.637Z,102003.28
2023-04-05T06:27:41.392Z,101999.72
2023-04-05T06:30:45.090Z,102010.66
2023-04-05T06:33:48.360Z,102013.63
2023-04-05T06:36:52.771Z,102002.16
2023-04-05T06:39:55.744Z,102001.72
2023-04-05T06:42:58.483Z,102009.69
2023-04-05T06:46:01.908Z,101996.38
2023-04-05T06:49:04.833Z,101998.81
2023-04-05T06:52:08.889Z,102000.84
2023-04-05T06:55:11.783Z,102005.94
2023-04-05T06:58:14.505Z,102000.47
2023-04-05T07:01:17.742Z,102003.63
2023-04-05T07:04:20.817Z,101995.44
2023-04-05T07:07:24.874Z,102002.69
2023-04-05T07:10:27.774Z,101992.06
2023-04-05T07:13:30.733Z,101991.75
2023-04-05T07:16:34.009Z,101987.50
2023-04-05T07:19:36.912Z,101987.44
2023-04-05T07:22:41.321Z,101993.06
2023-04-05T07:25:44.117Z,101985.94
2023-04-05T07:28:46.861Z,101986.34
2023-04-05T07:31:50.013Z,101994.09
2023-04-05T07:34:53.021Z,101991.91
2023-04-05T07:37:57.128Z,101982.59
2023-04-05T07:40:59.981Z,101994.47
2023-04-05T07:44:02.693Z,101983.63
2023-04-05T07:47:05.591Z,101984.78
2023-04-05T07:50:09.995Z,101984.91
2023-04-05T07:53:14.455Z,101977.81
2023-04-05T07:56:17.428Z,101986.25
2023-04-05T07:59:20.522Z,101985.59
2023-04-05T08:02:23.390Z,101981.03
2023-04-05T08:05:26.497Z,101983.56
2023-04-05T08:08:31.945Z,101990.78
2023-04-05T08:11:35.062Z,101985.78
2023-04-05T08:14:37.770Z,101982.59
2023-04-05T08:17:40.680Z,101980.28
2023-04-05T08:20:43.727Z,101977.25
2023-04-05T08:23:49.265Z,101973.34
2023-04-05T08:26:52.069Z,101975.94
2023-04-05T08:29:54.755Z,101978.66
2023-04-05T08:32:57.486Z,101973.09
2023-04-05T08:36:05.405Z,101969.72
2023-04-05T08:39:10.857Z,101975.03
2023-04-05T08:42:18.001Z,101974.72
2023-04-05T08:45:21.970Z,101964.44
2023-04-05T08:48:25.095Z,101971.03
2023-04-05T08:51:28.159Z,101978.69
2023-04-05T08:54:32.745Z,101967.56
2023-04-05T08:57:39.047Z,101974.25
2023-04-05T09:00:42.944Z,101971.91
2023-04-05T09:03:46.949Z,101965.03
2023-04-05T09:06:51.776Z,101970.09
2023-04-05T09:09:59.428Z,101959.09
2023-04-05T09:13:03.442Z,101961.63
2023-04-05T09:16:06.825Z,101956.03
2023-04-05T09:19:11.276Z,101956.66
2023-04-05T09:22:18.389Z,101953.50
2023-04-05T09:25:39.807Z,101958.16
2023-04-05T09:28:43.933Z,101957.88
2023-04-05T09:31:46.792Z,101951.34
2023-04-05T09:34:53.308Z,101955.84
2023-04-05T09:37:58.251Z,101943.06
2023-04-05T09:41:10.297Z,101949.03
2023-04-05T09:44:13.166Z,101949.13
2023-04-05T09:47:20.498Z,101948.63
2023-04-05T09:50:23.636Z,101947.47
2023-04-05T09:53:26.358Z,101941.78
2023-04-05T09:56:32.959Z,101940.63
2023-04-05T09:59:36.245Z,101936.25
2023-04-05T10:02:40.796Z,101928.41
2023-04-05T10:05:45.778Z,101939.00
2023-04-05T10:08:48.804Z,101946.91
2023-04-05T10:11:53.160Z,101937.81
2023-04-05T10:14:57.508Z,101931.63
2023-04-05T10:18:09.489Z,101926.88
2023-04-05T10:21:16.114Z,101930.56
2023-04-05T10:24:33.214Z,101927.28
2023-04-05T10:27:47.505Z,101930.97
2023-04-05T10:30:58.537Z,101928.34
2023-04-05T10:34:05.774Z,101932.50
2023-04-05T10:37:12.184Z,101927.66
2023-04-05T10:40:18.495Z,101926.91
2023-04-05T10:43:26.820Z,101921.75
2023-04-05T10:46:31.402Z,101928.34
2023-04-05T10:49:38.302Z,101922.16
2023-04-05T10:52:42.709Z,101923.31
2023-04-05T10:55:47.459Z,101919.16
2023-04-05T10:58:54.174Z,101920.69
2023-04-05T11:01:59.382Z,101921.91
2023-04-05T11:05:05.256Z,101918.75
2023-04-05T11:08:09.479Z,101909.06
2023-04-05T11:11:13.894Z,101911.22
2023-04-05T11:14:23.629Z,101913.75
2023-04-05T11:17:28.021Z,101915.44
2023-04-05T11:20:43.511Z,101909.44
2023-04-05T11:24:03.083Z,101908.38
2023-04-05T11:27:11.248Z,101896.03
2023-04-05T11:30:36.399Z,101918.28
2023-04-05T11:33:56.968Z,101912.09
2023-04-05T11:37:01.083Z,101897.47
2023-04-05T11:40:29.138Z,101904.06
2023-04-05T11:43:34.566Z,101904.06
2023-04-05T11:46:40.230Z,101910.28
2023-04-05T11:49:43.378Z,101909.78
2023-04-05T11:52:46.474Z,101904.13
2023-04-05T11:55:52.498Z,101899.06
2023-04-05T11:58:59.658Z,101898.38
2023-04-05T12:02:07.769Z,101900.44
2023-04-05T12:05:12.345Z,101902.22
2023-04-05T12:08:15.538Z,101900.03
2023-04-05T12:11:27.168Z,101891.78
2023-04-05T12:14:29.906Z,101896.06
2023-04-05T12:17:46.609Z,101898.41
2023-04-05T12:20:49.413Z,101902.25
2023-04-05T12:23:53.078Z,101894.22
2023-04-05T12:26:58.588Z,101893.97
2023-04-05T12:30:15.895Z,101894.97
2023-04-05T12:33:29.485Z,101887.13
2023-04-05T12:36:32.813Z,101875.28
2023-04-05T12:39:36.704Z,101879.09
2023-04-05T12:42:40.956Z,101884.91
2023-04-05T12:45:44.455Z,101871.00
2023-04-05T12:48:53.447Z,101868.09
2023-04-05T12:52:04.241Z,101869.44
2023-04-05T12:55:16.759Z,101864.72
2023-04-05T12:58:20.839Z,101865.19
2023-04-05T13:01:23.588Z,101862.66
2023-04-05T13:04:28.724Z,101860.97
2023-04-05T13:07:31.459Z,101864.13
2023-04-05T13:10:34.429Z,101857.50
2023-04-05T13:13:37.323Z,101849.34
2023-04-05T13:16:40.103Z,101849.16
2023-04-05T13:19:44.703Z,101840.78
2023-04-05T13:22:47.854Z,101837.88
2023-04-05T13:25:50.905Z,101837.78
2023-04-05T13:28:53.760Z,101832.38
2023-04-05T13:31:56.576Z,101841.53
2023-04-05T13:35:02.803Z,101833.41
2023-04-05T13:38:05.812Z,101826.72
2023-04-05T13:41:09.234Z,101811.25
2023-04-05T13:44:12.341Z,101819.50
2023-04-05T13:47:16.777Z,101816.75
2023-04-05T13:50:21.171Z,101816.53
2023-04-05T13:53:24.896Z,101810.97
2023-04-05T13:56:28.611Z,101810.47
2023-04-05T13:59:31.697Z,101811.63
2023-04-05T14:02:34.986Z,101801.94
2023-04-05T14:05:41.621Z,101801.41
2023-04-05T14:08:44.752Z,101790.22
2023-04-05T14:11:47.461Z,101791.81
2023-04-05T14:14:51.452Z,101785.44
2023-04-05T14:17:56.226Z,101781.91
2023-04-05T14:21:01.098Z,101781.47
2023-04-05T14:24:04.241Z,101776.88
2023-04-05T14:27:08.577Z,101776.66
2023-04-05T14:30:12.455Z,101773.78
2023-04-05T14:33:16.384Z,101775.66
2023-04-05T14:36:20.812Z,101770.53
2023-04-05T14:39:23.797Z,101767.28
2023-04-05T14:42:37.302Z,101763.56
2023-04-05T14:45:44.512Z,101767.75
2023-04-05T14:48:47.838Z,101765.44
2023-04-05T14:51:52.884Z,101765.31
2023-04-05T14:54:55.945Z,101762.47
2023-04-05T14:57:58.886Z,101761.59
2023-04-05T15:01:01.983Z,101759.69
2023-04-05T15:04:07.493Z,101754.34
2023-04-05T15:07:13.829Z,101756.19
2023-04-05T15:10:18.583Z,101761.06
2023-04-05T15:13:22.072Z,101754.94
2023-04-05T15:16:26.116Z,101754.56
2023-04-05T15:19:30.463Z,101752.91
2023-04-05T15:22:36.103Z,101763.53
2023-04-05T15:25:39.040Z,101757.16
2023-04-05T15:28:42.590Z,101743.50
2023-04-05T15:31:47.665Z,101748.09
2023-04-05T15:34:50.814Z,101738.59
2023-04-05T15:37:55.120Z,101742.09
2023-04-05T15:41:00.268Z,101751.38
2023-04-05T15:44:03.747Z,101742.41
2023-04-05T15:47:11.009Z,101745.28
2023-04-05T15:50:14.141Z,101742.75
2023-04-05T15:53:19.165Z,101746.13
2023-04-05T15:56:22.181Z,101735.03
2023-04-05T15:59:27.704Z,101734.56
2023-04-05T16:02:31.511Z,101728.84
2023-04-05T16:05:34.560Z,101724.91
2023-04-05T16:08:38.819Z,101728.97
2023-04-05T16:11:42.156Z,101729.31
2023-04-05T16:14:45.495Z,101734.72
2023-04-05T16:17:48.842Z,101733.88
2023-04-05T16:20:52.758Z,101729.59
2023-04-05T16:24:01.285Z,101734.44
2023-04-05T16:27:04.609Z,101723.84
2023-04-05T16:30:09.109Z,101721.66
2023-04-05T16:33:15.200Z,101730.06
2023-04-05T16:36:18.377Z,101725.97
2023-04-05T16:39:22.840Z,101729.25
2023-04-05T16:42:27.311Z,101720.09
2023-04-05T16:45:33.748Z,101729.16
2023-04-05T16:48:36.719Z,101722.81
2023-04-05T16:51:40.219Z,101729.94
2023-04-05T16:54:49.327Z,101720.22
2023-04-05T16:57:54.118Z,101723.44
2023-04-05T17:00:58.981Z,101733.69
2023-04-05T17:04:01.953Z,101727.16
2023-04-05T17:07:04.876Z,101730.63
2023-04-05T17:10:10.621Z,101728.31
2023-04-05T17:13:15.429Z,101728.72
2023-04-05T17:16:18.682Z,101732.78
2023-04-05T17:19:24.867Z,101725.41
2023-04-05T17:22:27.946Z,101728.41
2023-04-05T17:25:32.459Z,101733.47
2023-04-05T17:28:35.783Z,101738.84
2023-04-05T17:31:38.792Z,101734.31
2023-04-05T17:34:42.395Z,101729.28
2023-04-05T17:37:47.766Z,101738.78
2023-04-05T17:40:52.947Z,101745.53
2023-04-05T17:43:56.042Z,101742.34
2023-04-05T17:47:08.373Z,101747.66
2023-04-05T17:50:12.816Z,101750.06
2023-04-05T17:53:16.794Z,101739.28
2023-04-05T17:56:22.128Z,101751.50
2023-04-05T17:59:25.108Z,101754.91
2023-04-05T18:02:28.556Z,101754.94
2023-04-05T18:05:31.511Z,101758.25
2023-04-05T18:08:34.571Z,101751.63
2023-04-05T18:11:38.920Z,101754.78
2023-04-05T18:14:41.752Z,101767.81
2023-04-05T18:17:45.717Z,101766.13
2023-04-05T18:20:50.619Z,101757.09
2023-04-05T18:23:54.116Z,101764.66
2023-04-05T18:26:58.471Z,101764.06
2023-04-05T18:30:01.671Z,101768.88
2023-04-05T18:33:05.180Z,101768.91
2023-04-05T18:36:08.956Z,101772.47
2023-04-05T18:39:12.068Z,101778.13
2023-04-05T18:42:17.692Z,101774.75
2023-04-05T18:45:20.788Z,101776.03
2023-04-05T18:48:25.189Z,101782.53
2023-04-05T18:51:29.516Z,101775.84
2023-04-05T18:54:32.484Z,101781.50
2023-04-05T18:57:38.645Z,101788.47
2023-04-05T19:00:41.796Z,101786.97
2023-04-05T19:03:46.166Z,101796.00
2023-04-05T19:06:49.291Z,101788.69
2023-04-05T19:09:52.325Z,101784.03
2023-04-05T19:12:56.738Z,101783.59
2023-04-05T19:16:00.277Z,101780.28
2023-04-05T19:19:07.345Z,101779.63
2023-04-05T19:22:11.172Z,101782.59
2023-04-05T19:25:14.273Z,101788.47
2023-04-05T19:28:18.532Z,101786.16
2023-04-05T19:31:23.231Z,101788.03
2023-04-05T19:34:26.466Z,101790.16
2023-04-05T19:37:30.881Z,101785.13
2023-04-05T19:40:33.898Z,101785.31
2023-04-05T19:43:41.032Z,101784.47
2023-04-05T19:46:44.264Z,101785.75
2023-04-05T19:49:49.753Z,101787.63
2023-04-05T19:52:52.591Z,101779.63
2023-04-05T19:55:56.054Z,101790.50
2023-04-05T19:59:02.857Z,101787.56
2023-04-05T20:02:32.773Z,101784.22
2023-04-05T20:05:58.596Z,101783.78
2023-04-05T20:09:07.473Z,101784.16
2023-04-05T20:12:13.395Z,101783.34
2023-04-05T20:15:35.775Z,101792.34
2023-04-05T20:18:38.896Z,101780.59
2023-04-05T20:21:43.470Z,101780.19
2023-04-05T20:24:46.873Z,101777.63
2023-04-05T20:27:49.778Z,101772.81
2023-04-05T20:30:55.017Z,101782.25
2023-04-05T20:33:59.366Z,101774.06
2023-04-05T20:37:04.123Z,101775.13
2023-04-05T20:40:08.429Z,101765.84
2023-04-05T20:43:11.687Z,101770.03
2023-04-05T20:46:17.259Z,101764.53
2023-04-05T20:49:20.165Z,101768.09
2023-04-05T20:52:23.293Z,101760.69
2023-04-05T20:55:26.951Z,101764.47
2023-04-05T20:58:29.966Z,101758.31
2023-04-05T21:01:36.084Z,101765.41
2023-04-05T21:04:39.020Z,101761.19
2023-04-05T21:07:42.756Z,101764.69
2023-04-05T21:10:45.795Z,101763.81
2023-04-05T21:13:48.930Z,101757.88
2023-04-05T21:16:53.147Z,101755.88
2023-04-05T21:19:56.223Z,101766.69
2023-04-05T21:23:00.752Z,101759.72
2023-04-05T21:26:05.850Z,101759.84
2023-04-05T21:29:08.850Z,101759.22
2023-04-05T21:32:13.389Z,101764.19
2023-04-05T21:35:16.248Z,101757.91
2023-04-05T21:38:19.675Z,101765.84
2023-04-05T21:41:22.599Z,101766.69
2023-04-05T21:44:27.094Z,101755.19
2023-04-05T21:47:31.670Z,101763.53
2023-04-05T21:50:36.705Z,101757.25
2023-04-05T21:53:40.653Z,101760.50
2023-04-05T21:56:43.491Z,101751.53
2023-04-05T21:59:46.917Z,101756.84
2023-04-05T22:02:51.634Z,101763.25
2023-04-05T22:05:55.864Z,101754.81
2023-04-05T22:08:58.759Z,101754.66
2023-04-05T22:12:03.103Z,101754.88
2023-04-05T22:15:08.227Z,101748.69
2023-04-05T22:18:12.662Z,101753.06
2023-04-05T22:21:16.358Z,101755.34
2023-04-05T22:24:19.654Z,101754.81
2023-04-05T22:27:22.680Z,101760.97
2023-04-05T22:30:28.029Z,101748.75
2023-04-05T22:33:33.228Z,101754.56
2023-04-05T22:36:36.262Z,101754.97
2023-04-05T22:39:39.344Z,101753.09
2023-04-05T22:42:43.162Z,101754.66
2023-04-05T22:45:49.770Z,101751.09
2023-04-05T22:48:55.136Z,101760.47
2023-04-05T22:51:58.383Z,101754.41
2023-04-05T22:55:02.719Z,101756.28
2023-04-05T22:58:06.068Z,101762.47
2023-04-05T23:01:09.365Z,101754.72
2023-04-05T23:04:14.007Z,101754.06
2023-04-05T23:07:17.166Z,101760.09
2023-04-05T23:10:22.327Z,101754.47
2023-04-05T23:13:25.526Z,101754.88
2023-04-05T23:16:28.579Z,101760.31
2023-04-05T23:19:33.049Z,101756.28
2023-04-05T23:22:36.899Z,101758.16
2023-04-05T23:25:39.730Z,101752.31
2023-04-05T23:28:42.969Z,101753.94
2023-04-05T23:31:46.042Z,101754.78
2023-04-05T23:34:51.011Z,101749.53
2023-04-05T23:37:54.747Z,101749.34
2023-04-05T23:40:57.917Z,101742.47
2023-04-05T23:44:01.114Z,101743.31
2023-04-05T23:47:04.511Z,101743.06
2023-04-05T23:50:11.176Z,101747.06
2023-04-05T23:53:15.090Z,101741.00
2023-04-05T23:56:17.911Z,101743.50
2023-04-05T23:59:20.975Z,101730.13
